createdAt,value
2023-12-11T00:00:57.131Z,41.90
2023-12-11T00:03:24.232Z,30.92
2023-12-11T00:05:51.300Z,23.92
2023-12-11T00:08:18.163Z,33.65
2023-12-11T00:10:45.047Z,29.10
2023-12-11T00:13:11.965Z,31.87
2023-12-11T00:15:40.268Z,41.55
2023-12-11T00:18:07.804Z,28.88
2023-12-11T00:20:34.902Z,37.85
2023-12-11T00:23:01.816Z,33.00
2023-12-11T00:25:29.271Z,33.17
2023-12-11T00:27:56.372Z,41.58
2023-12-11T00:30:23.485Z,42.83
2023-12-11T00:32:50.437Z,41.65
2023-12-11T00:35:17.352Z,37.17
2023-12-11T00:37:44.797Z,30.60
2023-12-11T00:40:12.075Z,33.28
2023-12-11T00:42:39.079Z,40.63
2023-12-11T00:45:06.780Z,47.13
2023-12-11T00:47:33.980Z,40.03
2023-12-11T00:50:02.933Z,29.43
2023-12-11T00:52:31.393Z,44.85
2023-12-11T00:54:58.343Z,38.40
2023-12-11T00:57:25.201Z,40.30
2023-12-11T00:59:52.283Z,34.17
2023-12-11T01:02:19.302Z,38.47
2023-12-11T01:04:46.290Z,44.15
2023-12-11T01:07:13.228Z,29.15
2023-12-11T01:09:42.512Z,32.25
2023-12-11T01:12:09.455Z,34.30
2023-12-11T01:14:38.804Z,24.50
2023-12-11T01:17:36.414Z,37.08
2023-12-11T01:19:52.640Z,35.30
2023-12-11T01:22:19.570Z,37.03
2023-12-11T01:24:46.522Z,44.58
2023-12-11T01:27:13.421Z,40.87
2023-12-11T01:29:40.360Z,28.58
2023-12-11T01:32:07.330Z,35.45
2023-12-11T01:34:34.260Z,30.48
2023-12-11T01:37:01.396Z,34.72
2023-12-11T01:39:28.438Z,35.80
2023-12-11T01:41:55.379Z,41.55
2023-12-11T01:44:22.325Z,32.20
2023-12-11T01:46:49.249Z,40.38
2023-12-11T01:49:17.051Z,29.85
2023-12-11T01:51:44.505Z,39.00
2023-12-11T01:54:11.581Z,31.13
2023-12-11T01:56:38.955Z,31.25
2023-12-11T01:59:05.972Z,31.02
2023-12-11T02:01:33.526Z,31.25
2023-12-11T02:04:00.864Z,34.93
2023-12-11T02:06:27.833Z,30.50
2023-12-11T02:08:54.837Z,30.48
2023-12-11T02:11:21.759Z,38.45
2023-12-11T02:13:48.611Z,25.13
2023-12-11T02:16:18.726Z,26.00
2023-12-11T02:18:46.241Z,35.28
2023-12-11T02:21:13.402Z,35.50
2023-12-11T02:23:52.433Z,26.75
2023-12-11T02:26:20.253Z,23.58
2023-12-11T02:28:47.268Z,26.40
2023-12-11T02:31:14.643Z,29.98
2023-12-11T02:33:42.062Z,26.63
2023-12-11T02:36:09.444Z,28.45
2023-12-11T02:38:36.359Z,21.88
2023-12-11T02:41:03.509Z,27.87
2023-12-11T02:43:30.461Z,20.52
2023-12-11T02:45:57.404Z,27.35
2023-12-11T02:48:24.394Z,25.55
2023-12-11T02:50:51.311Z,33.28
2023-12-11T02:53:18.192Z,33.00
2023-12-11T02:55:45.074Z,23.50
2023-12-11T02:58:12.105Z,33.10
2023-12-11T03:00:39.222Z,21.60
2023-12-11T03:03:08.241Z,27.77
2023-12-11T03:05:35.245Z,25.67
2023-12-11T03:08:06.266Z,30.65
2023-12-11T03:10:34.026Z,26.35
2023-12-11T03:13:01.189Z,23.67
2023-12-11T03:15:28.216Z,23.85
2023-12-11T03:17:55.103Z,28.00
2023-12-11T03:20:21.995Z,22.73
2023-12-11T03:22:48.906Z,27.77
2023-12-11T03:25:15.877Z,33.63
2023-12-11T03:27:42.856Z,31.75
2023-12-11T03:30:10.089Z,25.43
2023-12-11T03:32:37.753Z,22.95
2023-12-11T03:35:05.252Z,31.38
2023-12-11T03:37:32.453Z,26.65
2023-12-11T03:39:59.604Z,28.45
2023-12-11T03:42:26.664Z,19.60
2023-12-11T03:44:55.208Z,28.08
2023-12-11T03:47:24.874Z,27.52
2023-12-11T03:49:52.669Z,37.53
2023-12-11T03:52:19.674Z,35.88
2023-12-11T03:54:46.552Z,30.43
2023-12-11T03:57:13.594Z,34.40
2023-12-11T03:59:41.403Z,27.30
2023-12-11T04:02:08.411Z,25.88
2023-12-11T04:04:35.486Z,27.27
2023-12-11T04:07:02.603Z,29.20
2023-12-11T04:09:29.498Z,26.05
2023-12-11T04:11:56.364Z,27.98
2023-12-11T04:14:23.289Z,26.77
2023-12-11T04:16:50.654Z,30.38
2023-12-11T04:19:17.648Z,21.27
2023-12-11T04:21:44.823Z,35.15
2023-12-11T04:24:14.193Z,35.40
2023-12-11T04:26:42.221Z,36.60
2023-12-11T04:29:09.107Z,27.95
2023-12-11T04:31:35.990Z,29.10
2023-12-11T04:34:03.275Z,27.42
2023-12-11T04:36:30.418Z,30.85
2023-12-11T04:38:57.307Z,35.47
2023-12-11T04:41:24.135Z,28.95
2023-12-11T04:43:51.213Z,27.83
2023-12-11T04:46:18.141Z,34.70
2023-12-11T04:48:45.197Z,29.15
2023-12-11T04:51:12.160Z,28.08
2023-12-11T04:53:39.079Z,32.17
2023-12-11T04:56:09.622Z,27.83
2023-12-11T04:58:36.541Z,25.95
2023-12-11T05:01:03.977Z,34.90
2023-12-11T05:03:31.184Z,34.58
2023-12-11T05:05:58.094Z,35.65
2023-12-11T05:08:28.097Z,34.27
2023-12-11T05:10:56.942Z,28.58
2023-12-11T05:13:23.818Z,30.05
2023-12-11T05:15:50.885Z,26.92
2023-12-11T05:18:17.882Z,32.55
2023-12-11T05:20:44.809Z,35.47
2023-12-11T05:23:11.976Z,37.67
2023-12-11T05:25:38.917Z,39.55
2023-12-11T05:28:05.896Z,29.85
2023-12-11T05:30:32.902Z,43.17
2023-12-11T05:33:00.846Z,28.03
2023-12-11T05:35:27.847Z,28.58
2023-12-11T05:37:59.687Z,30.95
2023-12-11T05:40:27.030Z,27.00
2023-12-11T05:42:54.165Z,29.42
2023-12-11T05:45:21.162Z,33.20
2023-12-11T05:47:48.128Z,20.75
2023-12-11T05:50:15.226Z,23.77
2023-12-11T05:52:42.340Z,26.65
2023-12-11T05:55:09.414Z,29.10
2023-12-11T05:57:36.373Z,34.33
2023-12-11T06:00:04.825Z,33.22
2023-12-11T06:02:32.230Z,26.70
2023-12-11T06:04:59.294Z,27.55
2023-12-11T06:07:26.220Z,26.58
2023-12-11T06:09:53.089Z,30.70
2023-12-11T06:12:19.996Z,22.80
2023-12-11T06:14:49.293Z,30.55
2023-12-11T06:17:16.803Z,25.40
2023-12-11T06:19:44.089Z,31.75
2023-12-11T06:22:11.350Z,18.00
2023-12-11T06:24:42.191Z,23.20
2023-12-11T06:27:09.534Z,17.95
2023-12-11T06:29:37.468Z,33.22
2023-12-11T06:32:04.794Z,27.08
2023-12-11T06:34:33.024Z,21.93
2023-12-11T06:37:00.223Z,19.75
2023-12-11T06:39:28.296Z,25.58
2023-12-11T06:41:55.438Z,18.98
2023-12-11T06:44:23.444Z,23.55
2023-12-11T06:46:50.422Z,20.90
2023-12-11T06:49:17.470Z,26.20
2023-12-11T06:51:44.524Z,20.55
2023-12-11T06:54:12.344Z,17.17
2023-12-11T06:56:40.161Z,24.25
2023-12-11T06:59:07.300Z,19.57
2023-12-11T07:01:35.393Z,18.73
2023-12-11T07:04:03.491Z,18.55
2023-12-11T07:06:30.525Z,17.67
2023-12-11T07:08:57.490Z,14.13
2023-12-11T07:11:25.617Z,18.67
2023-12-11T07:13:53.848Z,14.82
2023-12-11T07:16:21.074Z,15.52
2023-12-11T07:18:48.310Z,15.75
2023-12-11T07:21:15.323Z,20.27
2023-12-11T07:23:42.704Z,18.67
2023-12-11T07:26:09.990Z,20.35
2023-12-11T07:28:38.039Z,14.25
2023-12-11T07:31:06.789Z,25.85
2023-12-11T07:33:34.577Z,16.95
2023-12-11T07:36:02.238Z,11.03
2023-12-11T07:38:29.846Z,8.77
2023-12-11T07:40:59.278Z,12.20
2023-12-11T07:43:26.182Z,11.52
2023-12-11T07:45:53.974Z,10.63
2023-12-11T07:48:21.245Z,11.47
2023-12-11T07:50:48.377Z,12.55
2023-12-11T07:53:15.294Z,6.78
2023-12-11T07:55:42.299Z,10.52
2023-12-11T07:58:09.370Z,6.00
2023-12-11T08:00:36.383Z,11.20
2023-12-11T08:03:05.367Z,12.82
2023-12-11T08:05:32.693Z,8.55
2023-12-11T08:07:59.742Z,9.88
2023-12-11T08:10:26.830Z,11.35
2023-12-11T08:12:54.244Z,12.10
2023-12-11T08:15:21.335Z,11.50
2023-12-11T08:17:48.352Z,10.60
2023-12-11T08:20:18.431Z,7.30
2023-12-11T08:22:46.033Z,17.02
2023-12-11T08:25:14.796Z,17.83
2023-12-11T08:27:43.631Z,15.00
2023-12-11T08:30:12.287Z,12.85
2023-12-11T08:32:40.566Z,15.13
2023-12-11T08:35:08.928Z,11.82
2023-12-11T08:37:37.040Z,10.20
2023-12-11T08:40:07.688Z,14.65
2023-12-11T08:42:40.430Z,15.98
2023-12-11T08:45:09.825Z,11.18
2023-12-11T08:47:39.493Z,16.08
2023-12-11T08:50:08.760Z,9.47
2023-12-11T08:52:37.103Z,12.55
2023-12-11T08:55:04.437Z,13.00
2023-12-11T08:57:31.813Z,8.68
2023-12-11T08:59:59.217Z,9.90
2023-12-11T09:02:26.137Z,12.03
2023-12-11T09:04:53.203Z,12.77
2023-12-11T09:07:20.355Z,12.80
2023-12-11T09:09:47.463Z,15.55
2023-12-11T09:12:23.413Z,15.43
2023-12-11T09:14:57.954Z,14.00
2023-12-11T09:17:25.083Z,10.45
2023-12-11T09:19:55.463Z,9.48
2023-12-11T09:22:23.974Z,15.45
2023-12-11T09:24:51.340Z,18.67
2023-12-11T09:27:18.398Z,13.00
2023-12-11T09:29:49.262Z,18.70
2023-12-11T09:32:16.695Z,19.50
2023-12-11T09:34:43.885Z,13.80
2023-12-11T09:37:10.935Z,13.07
2023-12-11T09:39:39.416Z,21.73
2023-12-11T09:42:08.517Z,19.27
2023-12-11T09:44:37.101Z,19.55
2023-12-11T09:47:14.543Z,13.90
2023-12-11T09:49:41.642Z,11.35
2023-12-11T09:52:08.808Z,13.97
2023-12-11T09:54:36.194Z,14.63
2023-12-11T09:57:03.560Z,16.05
2023-12-11T09:59:31.882Z,17.05
2023-12-11T10:01:59.204Z,16.45
2023-12-11T10:04:26.267Z,17.73
2023-12-11T10:06:53.595Z,21.55
2023-12-11T10:09:31.176Z,11.57
2023-12-11T10:12:03.917Z,16.60
2023-12-11T10:14:31.703Z,12.90
2023-12-11T10:16:59.111Z,23.73
2023-12-11T10:19:35.685Z,21.33
2023-12-11T10:22:02.881Z,22.10
2023-12-11T10:24:30.637Z,20.42
2023-12-11T10:26:58.353Z,17.90
2023-12-11T10:29:27.126Z,16.30
2023-12-11T10:32:05.084Z,20.83
2023-12-11T10:34:47.635Z,12.10
2023-12-11T10:37:15.207Z,15.57
2023-12-11T10:40:00.766Z,17.63
2023-12-11T10:42:28.619Z,22.00
2023-12-11T10:44:59.606Z,16.13
2023-12-11T10:47:31.482Z,17.70
2023-12-11T10:50:03.136Z,11.95
2023-12-11T10:52:30.431Z,12.88
2023-12-11T10:54:57.266Z,21.03
2023-12-11T10:57:25.480Z,14.25
2023-12-11T10:59:52.867Z,18.20
2023-12-11T11:02:23.658Z,16.50
2023-12-11T11:04:50.530Z,9.85
2023-12-11T11:07:34.541Z,11.93
2023-12-11T11:10:05.165Z,13.30
2023-12-11T11:12:58.694Z,13.02
2023-12-11T11:15:26.336Z,15.88
2023-12-11T11:18:11.482Z,16.67
2023-12-11T11:20:40.610Z,13.20
2023-12-11T11:23:32.626Z,16.50
2023-12-11T11:26:00.501Z,13.27
2023-12-11T11:28:45.314Z,9.55
2023-12-11T11:31:23.084Z,9.77
2023-12-11T11:33:56.673Z,10.97
2023-12-11T11:36:44.881Z,13.98
2023-12-11T11:39:11.840Z,10.57
2023-12-11T11:41:39.448Z,7.65
2023-12-11T11:44:07.963Z,12.45
2023-12-11T11:46:55.472Z,15.97
2023-12-11T11:49:29.380Z,14.82
2023-12-11T11:51:57.020Z,11.02
2023-12-11T11:54:27.216Z,8.65
2023-12-11T11:56:54.210Z,7.00
2023-12-11T11:59:21.066Z,6.57
2023-12-11T12:01:59.553Z,9.98
2023-12-11T12:04:30.287Z,15.40
2023-12-11T12:07:05.571Z,7.85
2023-12-11T12:09:34.126Z,10.00
2023-12-11T12:12:01.870Z,11.30
2023-12-11T12:14:28.922Z,6.75
2023-12-11T12:16:56.412Z,13.48
2023-12-11T12:19:35.905Z,10.95
2023-12-11T12:22:03.782Z,7.15
2023-12-11T12:24:31.531Z,10.90
2023-12-11T12:27:07.575Z,12.25
2023-12-11T12:29:36.141Z,9.70
2023-12-11T12:32:03.906Z,9.43
2023-12-11T12:34:33.921Z,8.70
2023-12-11T12:37:02.772Z,13.37
2023-12-11T12:39:29.850Z,10.50
2023-12-11T12:41:57.396Z,7.95
2023-12-11T12:44:24.198Z,12.60
2023-12-11T12:46:51.480Z,11.73
2023-12-11T12:49:18.775Z,10.17
2023-12-11T12:51:53.635Z,10.95
2023-12-11T12:54:21.564Z,8.82
2023-12-11T12:56:56.775Z,9.77
2023-12-11T12:59:24.614Z,6.75
2023-12-11T13:01:51.844Z,8.50
2023-12-11T13:04:18.977Z,13.55
2023-12-11T13:06:48.552Z,9.80
2023-12-11T13:09:30.226Z,6.95
2023-12-11T13:11:57.089Z,10.85
2023-12-11T13:14:26.804Z,10.83
2023-12-11T13:16:54.564Z,7.50
2023-12-11T13:19:21.629Z,18.98
2023-12-11T13:21:49.189Z,10.70
2023-12-11T13:24:16.026Z,18.70
2023-12-11T13:26:42.843Z,14.10
2023-12-11T13:29:09.657Z,6.72
2023-12-11T13:31:36.456Z,9.73
2023-12-11T13:34:03.632Z,11.07
2023-12-11T13:36:30.480Z,14.82
2023-12-11T13:38:57.277Z,10.83
2023-12-11T13:41:24.028Z,11.95
2023-12-11T13:43:50.806Z,12.73
2023-12-11T13:46:17.651Z,7.90
2023-12-11T13:48:45.713Z,11.63
2023-12-11T13:51:12.604Z,10.67
2023-12-11T13:53:39.610Z,7.15
2023-12-11T13:56:07.077Z,9.70
2023-12-11T13:58:33.961Z,14.75
2023-12-11T14:01:02.049Z,10.95
2023-12-11T14:03:29.029Z,10.80
2023-12-11T14:05:55.987Z,13.00
2023-12-11T14:08:22.844Z,11.15
2023-12-11T14:10:49.912Z,7.90
2023-12-11T14:13:16.782Z,13.85
2023-12-11T14:15:46.820Z,11.23
2023-12-11T14:18:15.041Z,11.65
2023-12-11T14:20:41.899Z,9.50
2023-12-11T14:23:08.725Z,13.35
2023-12-11T14:25:35.602Z,10.45
2023-12-11T14:28:05.464Z,11.60
2023-12-11T14:30:41.262Z,8.57
2023-12-11T14:33:08.574Z,11.38
2023-12-11T14:35:37.002Z,6.22
2023-12-11T14:38:05.263Z,7.97
2023-12-11T14:40:32.251Z,10.40
2023-12-11T14:43:00.907Z,9.63
2023-12-11T14:45:27.753Z,12.48
2023-12-11T14:47:54.577Z,7.88
2023-12-11T14:50:21.465Z,9.65
2023-12-11T14:52:48.530Z,11.30
2023-12-11T14:55:24.510Z,6.70
2023-12-11T14:57:52.994Z,7.40
2023-12-11T15:00:19.933Z,8.23
2023-12-11T15:02:46.836Z,9.77
2023-12-11T15:05:13.673Z,4.63
2023-12-11T15:07:40.690Z,6.90
2023-12-11T15:10:08.218Z,10.60
2023-12-11T15:12:36.730Z,7.30
2023-12-11T15:15:06.137Z,7.90
2023-12-11T15:17:33.715Z,9.10
2023-12-11T15:20:07.355Z,9.15
2023-12-11T15:22:34.476Z,12.05
2023-12-11T15:25:01.365Z,6.45
2023-12-11T15:27:28.547Z,13.40
2023-12-11T15:29:55.493Z,7.13
2023-12-11T15:32:24.101Z,7.60
2023-12-11T15:34:50.948Z,9.55
2023-12-11T15:37:17.810Z,6.40
2023-12-11T15:39:44.699Z,7.18
2023-12-11T15:42:11.604Z,9.37
2023-12-11T15:44:38.494Z,9.05
2023-12-11T15:47:07.749Z,10.52
2023-12-11T15:49:37.211Z,9.70
2023-12-11T15:52:05.389Z,9.85
2023-12-11T15:54:32.220Z,8.30
2023-12-11T15:56:59.129Z,9.10
2023-12-11T15:59:26.056Z,8.82
2023-12-11T16:01:52.930Z,13.57
2023-12-11T16:04:19.889Z,9.80
2023-12-11T16:06:46.898Z,11.33
2023-12-11T16:09:15.301Z,9.25
2023-12-11T16:11:42.129Z,9.95
2023-12-11T16:14:08.990Z,5.82
2023-12-11T16:16:38.396Z,6.90
2023-12-11T16:19:05.878Z,10.90
2023-12-11T16:21:39.828Z,10.45
2023-12-11T16:24:07.054Z,10.57
2023-12-11T16:26:33.925Z,9.40
2023-12-11T16:29:00.803Z,15.65
2023-12-11T16:31:27.707Z,13.10
2023-12-11T16:33:54.723Z,11.32
2023-12-11T16:36:21.782Z,6.55
2023-12-11T16:38:48.819Z,5.30
2023-12-11T16:41:26.920Z,9.18
2023-12-11T16:43:54.918Z,10.00
2023-12-11T16:46:22.187Z,9.30
2023-12-11T16:48:49.171Z,11.77
2023-12-11T16:51:16.167Z,7.90
2023-12-11T16:53:46.585Z,7.00
2023-12-11T16:56:14.212Z,7.30
2023-12-11T16:58:42.489Z,12.77
2023-12-11T17:01:09.587Z,9.00
2023-12-11T17:03:36.673Z,8.93
2023-12-11T17:06:03.665Z,14.32
2023-12-11T17:08:30.487Z,14.17
2023-12-11T17:10:57.264Z,10.90
2023-12-11T17:13:24.141Z,15.57
2023-12-11T17:15:50.964Z,7.80
2023-12-11T17:18:18.250Z,10.30
2023-12-11T17:20:45.085Z,10.53
2023-12-11T17:23:11.878Z,15.05
2023-12-11T17:25:38.696Z,11.85
2023-12-11T17:28:05.837Z,9.10
2023-12-11T17:30:32.925Z,13.70
2023-12-11T17:32:59.857Z,14.23
2023-12-11T17:35:26.917Z,13.63
2023-12-11T17:37:53.738Z,11.98
2023-12-11T17:40:20.642Z,13.30
2023-12-11T17:42:49.232Z,13.68
2023-12-11T17:45:16.535Z,10.70
2023-12-11T17:47:43.721Z,14.30
2023-12-11T17:50:11.000Z,12.63
2023-12-11T17:52:38.484Z,12.82
2023-12-11T17:55:09.501Z,14.07
2023-12-11T17:57:36.706Z,13.20
2023-12-11T18:00:05.910Z,13.85
2023-12-11T18:02:32.686Z,15.48
2023-12-11T18:04:59.602Z,15.30
2023-12-11T18:07:27.052Z,14.55
2023-12-11T18:09:54.203Z,9.37
2023-12-11T18:12:21.910Z,11.50
2023-12-11T18:14:48.940Z,16.95
2023-12-11T18:17:16.382Z,13.77
2023-12-11T18:19:43.514Z,11.43
2023-12-11T18:22:10.404Z,12.43
2023-12-11T18:24:37.243Z,13.73
2023-12-11T18:27:04.166Z,10.38
2023-12-11T18:29:30.985Z,12.55
2023-12-11T18:31:57.762Z,12.20
2023-12-11T18:34:32.125Z,13.37
2023-12-11T18:37:06.703Z,13.07
2023-12-11T18:39:33.902Z,11.32
2023-12-11T18:42:01.012Z,14.05
2023-12-11T18:44:27.841Z,10.27
2023-12-11T18:46:57.277Z,12.83
2023-12-11T18:49:26.693Z,13.82
2023-12-11T18:51:53.510Z,14.15
2023-12-11T18:54:20.260Z,12.30
2023-12-11T18:56:47.438Z,11.48
2023-12-11T18:59:15.871Z,12.20
2023-12-11T19:01:43.592Z,10.63
2023-12-11T19:04:10.862Z,12.75
2023-12-11T19:06:37.795Z,11.38
2023-12-11T19:09:05.366Z,9.25
2023-12-11T19:11:33.018Z,11.17
2023-12-11T19:14:00.130Z,12.20
2023-12-11T19:16:27.044Z,10.98
2023-12-11T19:18:54.046Z,11.27
2023-12-11T19:21:22.176Z,15.43
2023-12-11T19:23:52.131Z,10.83
2023-12-11T19:26:19.585Z,15.70
2023-12-11T19:28:46.504Z,17.02
2023-12-11T19:31:13.657Z,15.02
2023-12-11T19:33:40.741Z,25.00
2023-12-11T19:36:08.097Z,18.67
2023-12-11T19:38:34.994Z,17.58
2023-12-11T19:41:01.748Z,21.00
2023-12-11T19:43:28.595Z,15.45
2023-12-11T19:45:56.134Z,11.23
2023-12-11T19:48:24.683Z,12.57
2023-12-11T19:50:51.681Z,15.35
2023-12-11T19:53:21.584Z,11.77
2023-12-11T19:55:48.411Z,13.18
2023-12-11T19:58:15.277Z,14.13
2023-12-11T20:00:42.646Z,15.30
2023-12-11T20:03:09.623Z,14.25
2023-12-11T20:05:36.447Z,14.05
2023-12-11T20:08:03.454Z,14.50
2023-12-11T20:10:31.086Z,13.88
2023-12-11T20:12:58.009Z,10.33
2023-12-11T20:15:24.816Z,15.02
2023-12-11T20:17:52.757Z,22.88
2023-12-11T20:20:20.207Z,15.70
2023-12-11T20:22:47.178Z,13.52
2023-12-11T20:25:14.215Z,12.33
2023-12-11T20:27:41.052Z,20.13
2023-12-11T20:30:08.500Z,13.05
2023-12-11T20:32:35.734Z,11.43
2023-12-11T20:35:03.149Z,12.85
2023-12-11T20:37:30.238Z,9.83
2023-12-11T20:39:57.364Z,12.10
2023-12-11T20:42:24.310Z,16.30
2023-12-11T20:44:54.321Z,19.30
2023-12-11T20:47:21.079Z,20.90
2023-12-11T20:49:48.056Z,15.73
2023-12-11T20:52:14.923Z,17.23
2023-12-11T20:54:44.650Z,20.20
2023-12-11T20:57:11.901Z,12.15
2023-12-11T20:59:38.643Z,12.90
2023-12-11T21:02:05.664Z,10.47
2023-12-11T21:04:32.686Z,12.15
2023-12-11T21:06:59.599Z,9.82
2023-12-11T21:09:26.417Z,14.13
2023-12-11T21:11:53.173Z,12.13
2023-12-11T21:14:20.495Z,12.67
2023-12-11T21:16:47.387Z,11.27
2023-12-11T21:19:14.923Z,11.77
2023-12-11T21:21:41.955Z,12.05
2023-12-11T21:24:09.877Z,8.38
2023-12-11T21:26:37.205Z,13.90
2023-12-11T21:29:04.273Z,12.90
2023-12-11T21:31:31.365Z,11.50
2023-12-11T21:33:59.279Z,16.42
2023-12-11T21:36:30.726Z,11.70
2023-12-11T21:38:58.270Z,12.87
2023-12-11T21:41:25.091Z,15.32
2023-12-11T21:43:53.047Z,11.02
2023-12-11T21:46:20.582Z,11.98
2023-12-11T21:48:49.768Z,15.80
2023-12-11T21:51:18.765Z,12.87
2023-12-11T21:53:46.497Z,11.40
2023-12-11T21:56:14.391Z,16.20
2023-12-11T21:58:42.118Z,10.40
2023-12-11T22:01:09.007Z,11.13
2023-12-11T22:03:35.934Z,13.10
2023-12-11T22:06:03.766Z,11.85
2023-12-11T22:08:30.823Z,12.25
2023-12-11T22:10:57.565Z,11.05
2023-12-11T22:13:24.600Z,12.38
2023-12-11T22:15:51.618Z,11.17
2023-12-11T22:18:18.456Z,10.82
2023-12-11T22:20:45.295Z,10.80
2023-12-11T22:23:12.685Z,12.60
2023-12-11T22:25:39.588Z,9.60
2023-12-11T22:28:06.428Z,9.27
2023-12-11T22:30:33.250Z,10.23
2023-12-11T22:33:00.224Z,10.80
2023-12-11T22:35:27.075Z,13.65
2023-12-11T22:37:54.359Z,13.10
2023-12-11T22:40:21.453Z,12.80
2023-12-11T22:42:48.686Z,10.65
2023-12-11T22:45:17.603Z,13.77
2023-12-11T22:47:44.884Z,12.35
2023-12-11T22:50:11.945Z,13.23
2023-12-11T22:52:38.920Z,15.23
2023-12-11T22:55:06.324Z,12.05
2023-12-11T22:57:33.619Z,14.75
2023-12-11T23:00:00.725Z,11.93
2023-12-11T23:02:27.722Z,11.93
2023-12-11T23:04:56.616Z,9.40
2023-12-11T23:07:23.857Z,11.10
2023-12-11T23:09:50.851Z,10.82
2023-12-11T23:12:18.276Z,12.80
2023-12-11T23:14:45.191Z,12.73
2023-12-11T23:17:12.052Z,12.13
2023-12-11T23:19:38.908Z,9.60
2023-12-11T23:22:06.177Z,11.70
2023-12-11T23:24:32.995Z,8.98
2023-12-11T23:26:59.831Z,8.90
2023-12-11T23:29:26.696Z,12.00
2023-12-11T23:31:53.493Z,10.73
2023-12-11T23:34:20.374Z,9.57
2023-12-11T23:36:47.310Z,8.45
2023-12-11T23:39:14.126Z,8.43
2023-12-11T23:41:42.208Z,7.03
2023-12-11T23:44:09.080Z,10.50
2023-12-11T23:46:36.041Z,14.15
2023-12-11T23:49:03.316Z,12.82
2023-12-11T23:51:30.238Z,8.40
2023-12-11T23:53:57.016Z,7.10
2023-12-11T23:56:24.209Z,10.82
2023-12-11T23:58:51.446Z,9.05
